Time;durP1;ratioP1;P1;durP2;ratioP2;P2;SDS_P1;SDS_P2;PMS_P1;PMS_P2;Temp;Humidity;BMP_temperature;BMP_pressure;BME280_temperature;BME280_humidity;BME280_pressure;Samples;Min_cycle;Max_cycle;Signal;HPM_P1;HPM_P2
2023/12/20 00:00:40;;;;;;;13.10;2.60;;;7.20;99.90;;;;;;5093686;28;20303;-70
2023/12/20 00:03:06;;;;;;;13.03;2.70;;;7.10;99.90;;;;;;5074887;28;20176;-70
2023/12/20 00:05:32;;;;;;;9.27;3.07;;;7.10;99.90;;;;;;5093556;28;20164;-70
2023/12/20 00:07:58;;;;;;;13.07;2.77;;;7.10;99.90;;;;;;5093469;28;20651;-70
2023/12/20 00:10:23;;;;;;;13.10;2.87;;;7.00;99.90;;;;;;5093592;28;20225;-70
2023/12/20 00:12:49;;;;;;;12.17;2.87;;;7.00;99.90;;;;;;5093403;28;20211;-70
2023/12/20 00:15:14;;;;;;;8.87;3.00;;;7.10;99.90;;;;;;5093557;28;20262;-70
2023/12/20 00:17:40;;;;;;;9.20;2.93;;;7.10;99.90;;;;;;5093219;28;20691;-70
2023/12/20 00:20:06;;;;;;;13.57;3.17;;;7.10;99.90;;;;;;5093474;28;20172;-70
2023/12/20 00:22:32;;;;;;;10.37;3.23;;;7.10;99.90;;;;;;5093622;28;20176;-70
2023/12/20 00:24:57;;;;;;;9.53;3.03;;;7.00;99.90;;;;;;5093312;28;20176;-69
2023/12/20 00:27:23;;;;;;;12.53;5.20;;;7.00;99.90;;;;;;5093172;28;20234;-69
2023/12/20 00:29:50;;;;;;;5.97;2.57;;;6.90;99.90;;;;;;5093153;28;20661;-69
2023/12/20 00:32:16;;;;;;;12.60;4.03;;;6.90;99.90;;;;;;5092934;28;20227;-69
2023/12/20 00:34:41;;;;;;;11.40;3.43;;;6.80;99.90;;;;;;5093289;28;20217;-69
2023/12/20 00:37:07;;;;;;;11.83;4.73;;;6.80;99.90;;;;;;5093277;28;20171;-69
2023/12/20 00:39:33;;;;;;;9.53;3.50;;;6.80;99.90;;;;;;5093158;28;20761;-69
2023/12/20 00:41:58;;;;;;;8.23;2.37;;;6.90;99.90;;;;;;5093254;28;20688;-69
2023/12/20 00:44:24;;;;;;;13.43;3.00;;;6.80;99.90;;;;;;5093294;28;20206;-69
2023/12/20 00:46:49;;;;;;;10.03;2.80;;;6.80;99.90;;;;;;5092955;28;20247;-70
2023/12/20 00:49:15;;;;;;;12.23;3.40;;;6.80;99.90;;;;;;5093137;28;20175;-69
2023/12/20 00:51:40;;;;;;;12.70;2.50;;;6.80;99.90;;;;;;5093001;28;20164;-70
2023/12/20 00:54:06;;;;;;;12.37;2.97;;;6.70;99.90;;;;;;5093069;28;20635;-69
2023/12/20 00:56:31;;;;;;;11.20;2.93;;;6.70;99.90;;;;;;5093243;28;20667;-69
2023/12/20 00:58:57;;;;;;;10.57;2.93;;;6.70;99.90;;;;;;5093268;28;20237;-69
2023/12/20 01:01:22;;;;;;;12.90;3.53;;;6.70;99.90;;;;;;5092842;28;20164;-69
2023/12/20 01:03:51;;;;;;;9.57;3.20;;;6.70;99.90;;;;;;5074895;28;20176;-69
2023/12/20 01:06:16;;;;;;;10.20;3.50;;;6.70;99.90;;;;;;5092980;28;20562;-70
2023/12/20 01:08:42;;;;;;;9.90;3.50;;;6.60;99.90;;;;;;5093167;28;20176;-70
2023/12/20 01:11:07;;;;;;;11.97;4.40;;;6.60;99.90;;;;;;5092981;28;20183;-70
2023/12/20 01:13:33;;;;;;;7.20;2.97;;;6.60;99.90;;;;;;5092803;28;20214;-71
2023/12/20 01:15:59;;;;;;;17.07;3.90;;;6.60;99.90;;;;;;5074668;28;20192;-70
2023/12/20 01:18:24;;;;;;;16.33;3.60;;;6.50;99.90;;;;;;5093118;28;20222;-70
2023/12/20 01:20:50;;;;;;;12.33;3.37;;;6.60;99.90;;;;;;5092941;28;20175;-69
2023/12/20 01:23:15;;;;;;;18.93;4.27;;;6.50;99.90;;;;;;5092863;28;20245;-69
2023/12/20 01:25:41;;;;;;;12.57;3.87;;;6.50;99.90;;;;;;5092904;28;20209;-69
2023/12/20 01:28:06;;;;;;;14.13;4.03;;;6.50;99.90;;;;;;5092888;28;20223;-70
2023/12/20 01:30:32;;;;;;;16.67;4.47;;;6.50;99.90;;;;;;5092548;28;20221;-70
2023/12/20 01:32:59;;;;;;;13.33;4.07;;;6.50;99.90;;;;;;5074609;28;20219;-69
2023/12/20 01:35:25;;;;;;;15.87;4.13;;;6.50;99.90;;;;;;5074686;28;20225;-70
2023/12/20 01:37:51;;;;;;;17.10;3.80;;;6.50;99.90;;;;;;5093192;28;20180;-70
2023/12/20 01:40:16;;;;;;;15.87;4.63;;;6.50;99.90;;;;;;5092948;28;20237;-70
2023/12/20 01:42:42;;;;;;;12.37;3.60;;;6.50;99.90;;;;;;5095118;28;20236;-70
2023/12/20 01:45:08;;;;;;;10.40;3.67;;;6.50;99.90;;;;;;5096296;28;20675;-70
2023/12/20 01:47:36;;;;;;;11.40;4.03;;;6.50;99.90;;;;;;5096518;28;20175;-70
2023/12/20 01:50:03;;;;;;;13.37;3.90;;;6.50;99.90;;;;;;5096369;28;20172;-70
2023/12/20 01:52:29;;;;;;;11.00;3.77;;;6.50;99.90;;;;;;5096106;28;20223;-70
2023/12/20 01:55:00;;;;;;;12.57;4.13;;;6.50;99.90;;;;;;5096273;28;20195;-70
2023/12/20 01:57:27;;;;;;;12.20;3.87;;;6.50;99.90;;;;;;5096233;28;20167;-69
2023/12/20 01:59:53;;;;;;;13.10;3.77;;;6.50;99.90;;;;;;5095951;28;20195;-70
2023/12/20 02:02:18;;;;;;;10.37;4.23;;;6.60;99.90;;;;;;5096021;28;20180;-69
2023/12/20 02:04:44;;;;;;;15.93;3.70;;;6.60;99.90;;;;;;5095883;28;20198;-69
2023/12/20 02:07:11;;;;;;;16.03;3.73;;;6.60;99.90;;;;;;5095867;28;20180;-69
2023/12/20 02:09:37;;;;;;;13.43;3.83;;;6.60;99.90;;;;;;5095906;28;20222;-69
2023/12/20 02:12:03;;;;;;;14.60;3.83;;;6.60;99.90;;;;;;5095876;28;20212;-69
2023/12/20 02:14:29;;;;;;;13.50;4.50;;;6.60;99.90;;;;;;5095314;28;20195;-69
2023/12/20 02:16:55;;;;;;;20.37;4.30;;;6.60;99.90;;;;;;5095922;28;20179;-70
2023/12/20 02:19:20;;;;;;;12.23;3.80;;;6.60;99.90;;;;;;5077585;28;20168;-68
2023/12/20 02:21:46;;;;;;;11.70;4.00;;;6.50;99.90;;;;;;5095736;28;20201;-69
2023/12/20 02:24:12;;;;;;;16.93;4.23;;;6.50;99.90;;;;;;5095449;28;20658;-69
2023/12/20 02:26:38;;;;;;;13.27;3.83;;;6.50;99.90;;;;;;5095311;28;20184;-70
2023/12/20 02:29:03;;;;;;;15.63;3.83;;;6.50;99.90;;;;;;5095295;28;20203;-70
2023/12/20 02:31:29;;;;;;;12.33;3.77;;;6.50;99.90;;;;;;5077302;28;20171;-70
2023/12/20 02:33:54;;;;;;;10.67;3.73;;;6.50;99.90;;;;;;5095190;28;20211;-69
2023/12/20 02:36:20;;;;;;;15.13;4.20;;;6.50;99.90;;;;;;5095414;28;20592;-68
2023/12/20 02:38:46;;;;;;;20.87;3.97;;;6.50;99.90;;;;;;5095434;28;20176;-70
2023/12/20 02:41:12;;;;;;;14.23;3.70;;;6.40;99.90;;;;;;5095385;28;20172;-70
2023/12/20 02:43:37;;;;;;;17.90;4.40;;;6.50;99.90;;;;;;5076750;28;20300;-69
2023/12/20 02:46:03;;;;;;;15.33;3.50;;;6.50;99.90;;;;;;5095325;28;20176;-69
2023/12/20 02:48:28;;;;;;;11.30;3.70;;;6.50;99.90;;;;;;5076848;28;20197;-69
2023/12/20 02:50:54;;;;;;;11.47;3.73;;;6.50;99.90;;;;;;5095167;28;20176;-69
2023/12/20 02:53:20;;;;;;;15.23;4.60;;;6.50;99.90;;;;;;5094775;28;20214;-69
2023/12/20 02:55:46;;;;;;;14.40;3.90;;;6.50;99.90;;;;;;5095020;28;20172;-69
2023/12/20 02:58:11;;;;;;;16.30;5.20;;;6.50;99.90;;;;;;5094599;28;20179;-69
2023/12/20 03:00:37;;;;;;;10.07;4.17;;;6.40;99.90;;;;;;5094926;28;20172;-68
2023/12/20 03:03:03;;;;;;;16.27;4.63;;;6.40;99.90;;;;;;5094754;28;20220;-69
2023/12/20 03:05:28;;;;;;;16.17;4.03;;;6.50;99.90;;;;;;5094784;28;20202;-69
2023/12/20 03:07:54;;;;;;;17.13;4.50;;;6.60;99.90;;;;;;5094885;28;20179;-69
2023/12/20 03:10:21;;;;;;;19.50;4.67;;;6.70;99.90;;;;;;5094639;28;20172;-69
2023/12/20 03:12:46;;;;;;;15.23;4.43;;;6.70;99.90;;;;;;5076345;28;20273;-69
2023/12/20 03:15:12;;;;;;;19.00;4.80;;;6.70;99.90;;;;;;5094472;28;20596;-69
2023/12/20 03:17:37;;;;;;;18.00;4.57;;;6.80;99.90;;;;;;5094616;28;20254;-69
2023/12/20 03:20:03;;;;;;;13.67;4.13;;;6.80;99.90;;;;;;5094618;28;20726;-69
2023/12/20 03:22:29;;;;;;;10.63;4.27;;;6.90;99.90;;;;;;5094388;28;20381;-69
2023/12/20 03:24:54;;;;;;;12.27;4.83;;;6.90;99.90;;;;;;5075970;28;20197;-69
2023/12/20 03:27:20;;;;;;;12.73;4.40;;;6.80;99.90;;;;;;5093957;28;20306;-69
2023/12/20 03:29:45;;;;;;;14.47;4.77;;;6.80;99.90;;;;;;5094283;28;20172;-69
2023/12/20 03:32:11;;;;;;;11.73;4.47;;;6.80;99.90;;;;;;5094177;28;20200;-69
2023/12/20 03:34:36;;;;;;;11.37;4.20;;;6.80;99.90;;;;;;5094050;28;20172;-69
2023/12/20 03:37:02;;;;;;;17.23;4.50;;;6.70;99.90;;;;;;5094213;28;20172;-69
2023/12/20 03:39:28;;;;;;;13.83;4.30;;;6.90;99.90;;;;;;5093694;28;20211;-70
2023/12/20 03:41:53;;;;;;;12.27;4.93;;;6.90;99.90;;;;;;5094163;28;20180;-70
2023/12/20 03:44:20;;;;;;;13.60;4.60;;;6.80;99.90;;;;;;5094063;28;20183;-69
2023/12/20 03:46:45;;;;;;;15.03;4.50;;;6.80;99.90;;;;;;5094076;28;20244;-69
2023/12/20 03:49:11;;;;;;;14.37;4.40;;;6.70;99.90;;;;;;5093951;28;20255;-69
2023/12/20 03:51:36;;;;;;;14.20;4.50;;;6.70;99.90;;;;;;5093885;28;20263;-69
2023/12/20 03:54:03;;;;;;;16.90;4.33;;;6.70;99.90;;;;;;5093519;28;20741;-69
2023/12/20 03:56:28;;;;;;;14.10;4.20;;;6.70;99.90;;;;;;5075697;28;20176;-69
2023/12/20 03:58:54;;;;;;;13.17;3.93;;;6.80;99.90;;;;;;5093608;28;20198;-69
2023/12/20 04:01:19;;;;;;;7.50;4.70;;;6.90;99.90;;;;;;5093697;28;20172;-69
2023/12/20 04:03:45;;;;;;;13.03;4.40;;;6.90;99.90;;;;;;5093426;28;20168;-69
2023/12/20 04:06:15;;;;;;;14.17;4.80;;;7.00;99.90;;;;;;5093311;28;20619;-69
2023/12/20 04:08:41;;;;;;;14.20;4.23;;;6.90;99.90;;;;;;5075198;28;20179;-69
2023/12/20 04:11:06;;;;;;;15.00;4.70;;;6.90;99.90;;;;;;5093372;28;20646;-68
2023/12/20 04:13:32;;;;;;;15.00;4.50;;;7.00;99.90;;;;;;5075177;28;20619;-68
2023/12/20 04:15:58;;;;;;;12.57;4.17;;;7.00;99.90;;;;;;5093178;28;20199;-68
2023/12/20 04:18:23;;;;;;;14.23;4.10;;;7.00;99.90;;;;;;5092954;28;20199;-69
2023/12/20 04:20:49;;;;;;;12.93;4.03;;;7.00;99.90;;;;;;5093208;28;20172;-69
2023/12/20 04:23:15;;;;;;;9.47;3.70;;;6.90;99.90;;;;;;5093012;28;20237;-68
2023/12/20 04:25:40;;;;;;;13.20;4.60;;;6.80;99.90;;;;;;5093418;28;20631;-68
2023/12/20 04:28:06;;;;;;;12.07;4.37;;;6.80;99.90;;;;;;5092963;28;20223;-69
2023/12/20 04:30:31;;;;;;;12.00;3.80;;;6.70;99.90;;;;;;5092945;28;20175;-70
2023/12/20 04:32:57;;;;;;;16.00;4.07;;;6.80;99.90;;;;;;5093235;28;20207;-69
2023/12/20 04:35:23;;;;;;;11.87;3.80;;;6.80;99.90;;;;;;5092648;28;20179;-70
2023/12/20 04:37:49;;;;;;;16.10;4.07;;;6.80;99.90;;;;;;5092580;28;20649;-70
2023/12/20 04:40:15;;;;;;;10.63;3.97;;;6.70;99.90;;;;;;5075104;28;20684;-69
2023/12/20 04:42:40;;;;;;;10.50;3.80;;;6.70;99.90;;;;;;5093037;28;20183;-69
2023/12/20 04:45:06;;;;;;;10.93;4.37;;;6.80;99.90;;;;;;5092632;28;20167;-69
2023/12/20 04:47:32;;;;;;;12.10;4.00;;;6.80;99.90;;;;;;5092883;28;20230;-69
2023/12/20 04:49:57;;;;;;;10.43;3.70;;;6.70;99.90;;;;;;5092863;28;20619;-69
2023/12/20 04:52:23;;;;;;;12.00;3.97;;;6.80;99.90;;;;;;5092209;28;20209;-70
2023/12/20 04:54:48;;;;;;;11.77;3.80;;;6.90;99.90;;;;;;5092658;28;20237;-70
2023/12/20 04:57:14;;;;;;;13.63;3.83;;;6.90;99.90;;;;;;5092627;28;20180;-69
2023/12/20 04:59:41;;;;;;;12.33;4.00;;;6.90;99.90;;;;;;5092646;28;20168;-69
2023/12/20 05:02:06;;;;;;;12.03;3.87;;;6.90;99.90;;;;;;5093113;28;20167;-69
2023/12/20 05:04:32;;;;;;;13.10;4.30;;;6.90;99.90;;;;;;5092730;28;20187;-69
2023/12/20 05:06:57;;;;;;;13.97;4.10;;;6.90;99.90;;;;;;5092529;28;20168;-69
2023/12/20 05:09:23;;;;;;;13.27;4.30;;;6.90;99.90;;;;;;5092731;28;20662;-69
2023/12/20 05:11:48;;;;;;;18.43;4.00;;;6.90;99.90;;;;;;5092457;28;20164;-69
2023/12/20 05:14:14;;;;;;;13.77;3.97;;;7.00;99.90;;;;;;5091902;28;20581;-69
2023/12/20 05:16:39;;;;;;;11.63;3.73;;;6.90;99.90;;;;;;5092545;28;20172;-68
2023/12/20 05:19:06;;;;;;;10.20;4.10;;;6.90;99.90;;;;;;5096141;28;20172;-69
2023/12/20 05:21:33;;;;;;;11.67;3.93;;;6.80;99.90;;;;;;5096323;28;20172;-69
2023/12/20 05:23:58;;;;;;;15.93;4.53;;;6.70;99.90;;;;;;5096260;28;20688;-69
2023/12/20 05:26:24;;;;;;;10.00;4.20;;;6.60;99.90;;;;;;5096366;28;20175;-71
2023/12/20 05:28:49;;;;;;;12.73;4.27;;;6.50;99.90;;;;;;5096288;28;20191;-69
2023/12/20 05:31:15;;;;;;;14.30;4.23;;;6.50;99.90;;;;;;5077773;28;20542;-69
2023/12/20 05:33:41;;;;;;;14.43;4.00;;;6.50;99.90;;;;;;5096213;28;20590;-69
2023/12/20 05:36:11;;;;;;;13.57;4.03;;;6.50;99.90;;;;;;5095629;28;20247;-69
2023/12/20 05:38:36;;;;;;;14.47;3.80;;;6.50;99.90;;;;;;5096544;28;20198;-69
2023/12/20 05:41:02;;;;;;;18.60;4.13;;;6.50;99.90;;;;;;5077702;28;20615;-69
2023/12/20 05:43:28;;;;;;;11.60;4.40;;;6.40;99.90;;;;;;5095566;28;20255;-69
2023/12/20 05:45:53;;;;;;;11.77;4.33;;;6.30;99.90;;;;;;5095353;28;20706;-69
2023/12/20 05:48:19;;;;;;;12.67;3.90;;;6.40;99.90;;;;;;5095425;28;20634;-69
2023/12/20 05:50:44;;;;;;;10.37;4.13;;;6.30;99.90;;;;;;5095562;28;20237;-69
2023/12/20 05:53:10;;;;;;;18.03;4.50;;;6.20;99.90;;;;;;5095552;28;20215;-68
2023/12/20 05:55:35;;;;;;;15.07;4.40;;;6.20;99.90;;;;;;5095765;28;20175;-68
2023/12/20 05:58:01;;;;;;;10.00;4.17;;;6.30;99.90;;;;;;5095655;28;20182;-69
2023/12/20 06:00:26;;;;;;;12.13;4.13;;;6.30;99.90;;;;;;5095289;28;20176;-69
2023/12/20 06:02:52;;;;;;;14.90;4.30;;;6.30;99.90;;;;;;5093863;28;20218;-69
2023/12/20 06:05:18;;;;;;;16.80;3.90;;;6.30;99.90;;;;;;5094995;28;20172;-70
2023/12/20 06:07:44;;;;;;;15.43;4.40;;;6.30;99.90;;;;;;5095759;28;20240;-68
2023/12/20 06:10:10;;;;;;;13.67;4.17;;;6.30;99.90;;;;;;5094770;28;20482;-70
2023/12/20 06:12:37;;;;;;;13.77;3.87;;;6.30;99.90;;;;;;5094505;28;20208;-70
2023/12/20 06:15:03;;;;;;;10.93;4.37;;;6.30;99.90;;;;;;5094473;28;20199;-69
2023/12/20 06:17:30;;;;;;;14.23;4.10;;;6.30;99.90;;;;;;5095105;28;20168;-69
2023/12/20 06:19:56;;;;;;;17.40;4.53;;;6.30;99.90;;;;;;5094489;28;20187;-69
2023/12/20 06:22:21;;;;;;;12.73;4.23;;;6.40;99.90;;;;;;5094541;28;20174;-68
2023/12/20 06:24:47;;;;;;;11.43;3.40;;;6.40;99.90;;;;;;5094496;28;20172;-69
2023/12/20 06:27:12;;;;;;;12.47;3.63;;;6.40;99.90;;;;;;5093596;28;20280;-69
2023/12/20 06:29:38;;;;;;;9.80;3.30;;;6.40;99.90;;;;;;5093930;28;20173;-68
2023/12/20 06:32:04;;;;;;;12.17;3.80;;;6.40;99.90;;;;;;5093544;28;20284;-70
2023/12/20 06:34:29;;;;;;;13.37;3.70;;;6.40;99.90;;;;;;5094317;28;20210;-69
2023/12/20 06:36:55;;;;;;;9.90;3.90;;;6.40;99.90;;;;;;5094904;28;20176;-70
2023/12/20 06:39:20;;;;;;;16.57;4.37;;;6.40;99.90;;;;;;5075651;28;20247;-70
2023/12/20 06:41:46;;;;;;;11.97;3.70;;;6.30;99.90;;;;;;5093766;28;20179;-69
2023/12/20 06:44:12;;;;;;;8.53;3.33;;;6.30;99.90;;;;;;5094106;28;20168;-69
2023/12/20 06:46:37;;;;;;;18.80;4.80;;;6.30;99.90;;;;;;5094028;28;20237;-70
2023/12/20 06:49:03;;;;;;;8.20;3.50;;;6.30;99.90;;;;;;5093784;28;20187;-71
2023/12/20 06:51:30;;;;;;;18.40;4.10;;;6.30;99.90;;;;;;5093719;28;20203;-69
2023/12/20 06:53:56;;;;;;;17.83;4.00;;;6.20;99.90;;;;;;5093727;28;20218;-69
2023/12/20 06:56:21;;;;;;;15.70;3.83;;;6.10;99.90;;;;;;5093251;28;20168;-69
2023/12/20 06:58:47;;;;;;;17.87;4.33;;;6.10;99.90;;;;;;5093512;28;20197;-69
2023/12/20 07:01:16;;;;;;;12.00;3.30;;;6.10;99.90;;;;;;5093891;28;20168;-70
2023/12/20 07:03:42;;;;;;;11.80;4.50;;;6.00;99.90;;;;;;5093063;28;20175;-70
2023/12/20 07:06:08;;;;;;;11.67;4.10;;;6.00;99.90;;;;;;5093161;28;20168;-69
2023/12/20 07:08:33;;;;;;;16.20;4.57;;;6.00;99.90;;;;;;5093476;28;20623;-70
2023/12/20 07:10:59;;;;;;;18.40;4.40;;;5.90;99.90;;;;;;5093621;28;20537;-69
2023/12/20 07:13:24;;;;;;;14.33;4.20;;;6.00;99.90;;;;;;5075046;28;20227;-70
2023/12/20 07:15:50;;;;;;;14.20;4.30;;;5.90;99.90;;;;;;5093367;28;20195;-69
2023/12/20 07:18:16;;;;;;;12.43;4.10;;;5.90;99.90;;;;;;5092622;28;20486;-69
2023/12/20 07:20:42;;;;;;;18.57;4.23;;;6.00;99.90;;;;;;5092970;28;20168;-70
2023/12/20 07:23:08;;;;;;;15.17;4.03;;;6.00;99.90;;;;;;5092608;28;20176;-70
2023/12/20 07:25:34;;;;;;;8.80;4.10;;;6.00;99.90;;;;;;5093201;28;20164;-70
2023/12/20 07:27:59;;;;;;;16.00;4.37;;;5.90;99.90;;;;;;5092349;28;20550;-71
2023/12/20 07:30:25;;;;;;;10.97;4.43;;;5.80;99.90;;;;;;5093114;28;20252;-70
2023/12/20 07:32:52;;;;;;;13.43;3.77;;;5.70;99.90;;;;;;5092207;28;20204;-69
2023/12/20 07:35:17;;;;;;;12.60;3.80;;;5.80;99.90;;;;;;5092969;28;20267;-71
2023/12/20 07:37:45;;;;;;;19.43;4.50;;;5.70;99.90;;;;;;5093008;28;20207;-70
2023/12/20 07:40:10;;;;;;;14.60;4.23;;;5.70;99.90;;;;;;5092169;28;20247;-69
2023/12/20 07:42:36;;;;;;;12.43;4.40;;;5.70;99.90;;;;;;5092913;28;20183;-70
2023/12/20 07:45:02;;;;;;;13.90;3.90;;;5.70;99.90;;;;;;5092545;28;20175;-70
2023/12/20 07:47:28;;;;;;;14.37;3.60;;;5.70;99.90;;;;;;5092550;28;20222;-69
2023/12/20 07:49:53;;;;;;;13.53;3.90;;;5.70;99.90;;;;;;5093061;28;20207;-70
2023/12/20 07:52:22;;;;;;;13.10;4.10;;;5.70;99.90;;;;;;5092337;28;20623;-72
2023/12/20 07:54:48;;;;;;;15.23;4.30;;;5.70;99.90;;;;;;5074507;28;20654;-70
2023/12/20 07:57:13;;;;;;;12.17;4.00;;;5.70;99.90;;;;;;5092841;28;20203;-69
2023/12/20 07:59:39;;;;;;;14.03;4.70;;;5.80;99.90;;;;;;5092699;28;20203;-70
2023/12/20 08:02:04;;;;;;;13.20;3.90;;;5.70;99.90;;;;;;5092294;28;20274;-70
2023/12/20 08:04:30;;;;;;;11.73;4.60;;;5.80;99.90;;;;;;5067856;28;20190;-70
2023/12/20 08:06:56;;;;;;;11.00;4.00;;;5.70;99.90;;;;;;5091062;28;20180;-70
2023/12/20 08:09:21;;;;;;;17.37;4.23;;;5.80;99.90;;;;;;5086168;28;20631;-69
2023/12/20 08:11:48;;;;;;;10.27;4.13;;;5.80;99.90;;;;;;5080508;28;20187;-70
2023/12/20 08:14:14;;;;;;;16.07;4.07;;;5.80;99.90;;;;;;5088199;28;20354;-70
2023/12/20 08:16:39;;;;;;;13.37;3.73;;;5.90;99.90;;;;;;5091587;28;20639;-69
2023/12/20 08:19:05;;;;;;;17.63;3.97;;;5.90;99.90;;;;;;5084130;28;20207;-69
2023/12/20 08:21:30;;;;;;;11.87;3.50;;;6.00;99.90;;;;;;5092387;28;20172;-69
2023/12/20 08:23:56;;;;;;;12.27;3.53;;;6.10;99.90;;;;;;5090732;28;20184;-68
2023/12/20 08:26:24;;;;;;;14.57;3.87;;;6.20;99.90;;;;;;5072329;28;20642;-68
2023/12/20 08:28:50;;;;;;;12.40;4.07;;;6.20;99.90;;;;;;5082441;28;20194;-69
2023/12/20 08:31:19;;;;;;;15.30;3.57;;;6.40;99.90;;;;;;5060150;28;20245;-73
2023/12/20 08:33:45;;;;;;;9.20;3.80;;;6.50;99.90;;;;;;5080932;28;20204;-72
2023/12/20 08:36:11;;;;;;;12.73;3.40;;;6.60;99.90;;;;;;5090965;28;20172;-70
2023/12/20 08:38:37;;;;;;;13.80;3.90;;;6.90;99.90;;;;;;5088983;28;20549;-71
2023/12/20 08:41:04;;;;;;;9.60;3.20;;;7.30;99.90;;;;;;5089125;28;20180;-71
2023/12/20 08:43:36;;;;;;;12.23;3.20;;;7.80;99.90;;;;;;5090230;28;20183;-70
2023/12/20 08:46:02;;;;;;;8.20;3.30;;;8.00;99.90;;;;;;5090094;28;20182;-70
2023/12/20 08:48:28;;;;;;;8.10;3.27;;;8.40;99.90;;;;;;5091750;28;20167;-72
2023/12/20 08:50:54;;;;;;;13.20;3.47;;;8.40;99.90;;;;;;5086657;28;20181;-71
2023/12/20 08:53:20;;;;;;;17.00;3.70;;;8.40;99.90;;;;;;5072686;28;20281;-70
2023/12/20 08:55:46;;;;;;;11.13;3.27;;;8.50;99.90;;;;;;5091318;28;20570;-70
2023/12/20 08:58:12;;;;;;;11.70;3.97;;;8.90;99.90;;;;;;5081288;28;20695;-70
2023/12/20 09:00:38;;;;;;;11.43;3.80;;;9.40;99.90;;;;;;5093484;28;20266;-70
2023/12/20 09:03:04;;;;;;;8.70;3.90;;;9.90;99.90;;;;;;5094428;28;20176;-69
2023/12/20 09:05:30;;;;;;;5.97;3.20;;;10.30;99.90;;;;;;5090043;28;20180;-71
2023/12/20 09:07:55;;;;;;;12.43;4.03;;;10.10;99.90;;;;;;5092381;28;20515;-71
2023/12/20 09:10:23;;;;;;;10.10;3.63;;;10.50;99.90;;;;;;5093701;28;20503;-70
2023/12/20 09:12:58;;;;;;;15.23;5.03;;;10.80;99.90;;;;;;5093543;28;20192;-70
2023/12/20 09:15:25;;;;;;;13.10;4.17;;;11.00;99.90;;;;;;5093847;28;20256;-69
2023/12/20 09:17:51;;;;;;;14.97;3.80;;;10.90;99.90;;;;;;5093001;28;20247;-70
2023/12/20 09:20:16;;;;;;;10.40;3.77;;;10.60;99.90;;;;;;5093281;28;20657;-70
2023/12/20 09:22:42;;;;;;;14.47;3.70;;;10.70;99.90;;;;;;5095578;28;20615;-69
2023/12/20 09:25:09;;;;;;;7.00;3.23;;;10.80;99.90;;;;;;5095233;28;20275;-69
2023/12/20 09:27:34;;;;;;;8.83;3.47;;;10.90;99.90;;;;;;5095124;28;20227;-70
2023/12/20 09:30:00;;;;;;;13.33;3.40;;;11.20;99.90;;;;;;5094547;28;20556;-71
2023/12/20 09:32:25;;;;;;;10.70;3.53;;;11.60;99.90;;;;;;5095733;28;20670;-70
2023/12/20 09:34:51;;;;;;;10.80;3.13;;;11.90;99.90;;;;;;5094832;28;20178;-70
2023/12/20 09:37:17;;;;;;;8.47;3.57;;;11.80;99.90;;;;;;5094219;28;20263;-71
2023/12/20 09:39:42;;;;;;;11.20;3.43;;;11.90;99.90;;;;;;5096148;28;20164;-70
2023/12/20 09:42:11;;;;;;;8.30;3.20;;;11.70;99.90;;;;;;5095368;28;20651;-71
2023/12/20 09:44:36;;;;;;;9.87;3.40;;;11.80;99.90;;;;;;5096000;28;20267;-70
2023/12/20 09:47:04;;;;;;;14.90;3.63;;;11.60;99.90;;;;;;5095305;28;20195;-72
2023/12/20 09:49:30;;;;;;;8.70;3.20;;;11.30;99.90;;;;;;5095528;28;20164;-70
2023/12/20 09:51:57;;;;;;;12.93;3.40;;;10.90;99.90;;;;;;5095557;28;20245;-71
2023/12/20 09:54:23;;;;;;;9.97;3.13;;;10.60;99.90;;;;;;5095027;28;20192;-71
2023/12/20 09:56:49;;;;;;;8.53;3.13;;;10.30;99.90;;;;;;5094445;28;20168;-71
2023/12/20 09:59:15;;;;;;;12.23;3.60;;;10.10;99.90;;;;;;5076662;28;20179;-71
2023/12/20 10:01:42;;;;;;;9.33;3.03;;;10.10;99.90;;;;;;5095398;28;20168;-73
2023/12/20 10:04:12;;;;;;;13.20;3.57;;;9.80;99.90;;;;;;5076623;28;20620;-75
2023/12/20 10:06:41;;;;;;;11.20;3.57;;;9.80;99.90;;;;;;5095426;28;20263;-73
2023/12/20 10:09:08;;;;;;;9.63;3.30;;;9.80;99.90;;;;;;5094563;28;20164;-74
2023/12/20 10:11:37;;;;;;;13.33;3.53;;;9.80;99.90;;;;;;5094667;28;20172;-73
2023/12/20 10:14:03;;;;;;;12.47;3.37;;;9.50;99.90;;;;;;5076451;28;20215;-72
2023/12/20 10:16:29;;;;;;;12.07;3.07;;;9.40;99.90;;;;;;5095057;28;20171;-73
2023/12/20 10:18:55;;;;;;;12.20;3.60;;;9.70;99.90;;;;;;5076733;28;20179;-73
2023/12/20 10:21:22;;;;;;;13.17;3.50;;;10.10;99.90;;;;;;5095041;28;20650;-73
2023/12/20 10:23:50;;;;;;;12.23;3.60;;;10.40;99.90;;;;;;5095166;28;20570;-72
2023/12/20 10:26:22;;;;;;;11.90;3.10;;;10.40;99.90;;;;;;5093935;28;20236;-72
2023/12/20 10:28:55;;;;;;;12.33;3.37;;;10.30;99.90;;;;;;5053192;28;20189;-72
2023/12/20 10:31:31;;;;;;;9.63;3.37;;;10.30;99.90;;;;;;5053228;28;20209;-72
2023/12/20 10:33:58;;;;;;;20.27;4.50;;;10.00;99.90;;;;;;5054019;28;20211;-71
2023/12/20 10:36:26;;;;;;;13.63;3.43;;;10.00;99.90;;;;;;5054649;28;20184;-72
2023/12/20 10:38:53;;;;;;;13.83;4.30;;;9.80;99.90;;;;;;5054041;28;20161;-73
2023/12/20 10:41:32;;;;;;;15.33;4.50;;;9.60;99.90;;;;;;5053743;28;20188;-72
2023/12/20 10:44:03;;;;;;;18.53;3.33;;;9.70;99.90;;;;;;5054115;28;20692;-71
2023/12/20 10:46:29;;;;;;;14.27;4.00;;;9.70;99.90;;;;;;5054213;28;20173;-73
2023/12/20 10:48:56;;;;;;;14.80;3.30;;;9.70;99.90;;;;;;5054317;28;20201;-73
2023/12/20 10:51:23;;;;;;;14.37;3.70;;;9.60;99.90;;;;;;5054269;28;20208;-73
2023/12/20 10:53:50;;;;;;;12.80;3.63;;;9.40;99.90;;;;;;5053678;28;20213;-72
2023/12/20 10:56:21;;;;;;;10.40;3.20;;;9.40;99.90;;;;;;5053213;28;20173;-73
2023/12/20 10:58:48;;;;;;;14.57;4.10;;;9.40;99.90;;;;;;5054383;28;20189;-72
2023/12/20 11:01:15;;;;;;;11.00;3.40;;;9.50;99.90;;;;;;5053891;28;20330;-72
2023/12/20 11:03:49;;;;;;;10.13;3.43;;;9.30;99.90;;;;;;5053710;28;20165;-72
2023/12/20 11:06:17;;;;;;;12.17;3.67;;;9.30;99.90;;;;;;5054197;28;20265;-72
2023/12/20 11:09:09;;;;;;;10.13;3.27;;;9.10;99.90;;;;;;5053561;28;20691;-73
2023/12/20 11:11:52;;;;;;;15.57;3.80;;;9.10;99.90;;;;;;5053845;28;20165;-73
2023/12/20 11:14:24;;;;;;;10.13;3.27;;;9.00;99.90;;;;;;5053488;28;20596;-73
2023/12/20 11:16:51;;;;;;;10.53;3.70;;;9.00;99.90;;;;;;5053315;28;20177;-72
2023/12/20 11:19:16;;;;;;;11.43;3.00;;;9.10;99.90;;;;;;5038441;28;20280;-70
2023/12/20 11:21:42;;;;;;;13.77;3.57;;;9.10;99.90;;;;;;5030884;28;20265;-71
2023/12/20 11:24:09;;;;;;;14.43;3.63;;;9.10;99.90;;;;;;5039675;28;20173;-72
2023/12/20 11:26:34;;;;;;;9.47;3.47;;;9.10;99.90;;;;;;5054709;28;20243;-72
2023/12/20 11:29:38;;;;;;;13.00;3.87;;;9.10;99.90;;;;;;5092551;28;20619;-72
2023/12/20 11:32:24;;;;;;;10.43;3.63;;;9.20;99.90;;;;;;5092641;28;20260;-72
2023/12/20 11:35:19;;;;;;;12.37;4.13;;;9.30;99.90;;;;;;5074208;28;20182;-72
2023/12/20 11:37:47;;;;;;;14.73;4.33;;;9.30;99.90;;;;;;5010428;28;20254;-71
2023/12/20 11:40:16;;;;;;;11.33;3.40;;;9.20;99.90;;;;;;5011071;28;20174;-72
2023/12/20 11:42:45;;;;;;;15.33;4.93;;;9.30;99.90;;;;;;5010562;28;20203;-72
2023/12/20 11:45:19;;;;;;;13.13;3.73;;;9.20;99.90;;;;;;5010318;28;20225;-72
2023/12/20 11:47:46;;;;;;;12.97;4.03;;;9.20;99.90;;;;;;5011114;28;20174;-72
2023/12/20 11:50:12;;;;;;;12.17;5.30;;;9.30;99.90;;;;;;5011068;28;20178;-73
2023/12/20 11:52:38;;;;;;;16.80;8.23;;;9.20;99.90;;;;;;5010529;28;20207;-71
2023/12/20 11:55:04;;;;;;;13.83;4.53;;;9.40;99.90;;;;;;5010617;28;20186;-72
2023/12/20 11:57:30;;;;;;;8.73;3.50;;;9.40;99.90;;;;;;5011195;28;20316;-71
2023/12/20 11:59:56;;;;;;;13.73;4.77;;;9.40;99.90;;;;;;5011459;28;20170;-71
2023/12/20 12:02:23;;;;;;;13.17;3.43;;;9.30;99.90;;;;;;5010435;28;20193;-72
2023/12/20 12:04:50;;;;;;;13.83;3.80;;;9.40;99.90;;;;;;5010351;28;20618;-72
2023/12/20 12:07:16;;;;;;;11.07;3.37;;;9.30;99.90;;;;;;5010516;28;20240;-72
2023/12/20 12:09:43;;;;;;;10.50;3.90;;;9.30;99.90;;;;;;5010531;28;20205;-71
2023/12/20 12:12:08;;;;;;;10.63;3.50;;;9.30;99.90;;;;;;5009901;28;20233;-72
2023/12/20 12:14:36;;;;;;;8.73;3.60;;;9.50;99.90;;;;;;5066990;28;20204;-72
2023/12/20 12:17:02;;;;;;;12.03;3.33;;;9.40;99.90;;;;;;5092615;28;20224;-72
2023/12/20 12:19:29;;;;;;;16.57;4.00;;;9.60;99.90;;;;;;5093091;28;20179;-71
2023/12/20 12:22:16;;;;;;;13.33;4.03;;;9.50;99.90;;;;;;5091754;28;20258;-72
2023/12/20 12:24:45;;;;;;;10.17;4.20;;;9.50;99.90;;;;;;5091887;28;20184;-70
2023/12/20 12:27:12;;;;;;;13.23;3.97;;;9.60;99.90;;;;;;5091411;28;20242;-71
2023/12/20 12:29:38;;;;;;;11.03;3.80;;;9.60;99.90;;;;;;5092410;28;20183;-72
2023/12/20 12:32:08;;;;;;;12.77;4.00;;;9.60;99.90;;;;;;5091814;28;20733;-71
2023/12/20 12:34:34;;;;;;;14.00;3.50;;;9.50;99.90;;;;;;5091958;28;20183;-72
2023/12/20 12:37:00;;;;;;;10.20;3.20;;;9.60;99.90;;;;;;5091607;28;20263;-71
2023/12/20 12:39:26;;;;;;;12.40;3.70;;;9.50;99.90;;;;;;5092011;28;20268;-72
2023/12/20 12:41:52;;;;;;;13.10;3.53;;;9.60;99.90;;;;;;5074283;28;20290;-72
2023/12/20 12:44:17;;;;;;;15.90;4.57;;;9.60;99.90;;;;;;5092596;28;20297;-71